Endicott, Kentucky
Current Conditions -  °F | °C
As of 5:15 PM on Saturday 20 Dec 2014 (Local Time) from KSJS Reporting Station
Overcast Overcast  
Wind Chill: 35°   Ceiling: 4600
Heat Index: 35°   Visibility: 10mi
Dew Point: 27°   Wind: 0mph
Humidity: 72%   Direction: NA
Pressure: 30.22"   Gusts: NA
Location:  37.6405°N, 82.8256°W
Report Text: KSJS 202215Z AUTO 00000KT 10SM BKN046 OVC050 02/M03 A3022 RMK AO2 T00191026
Loading
Personal Weather Stations






























Interactive Weather Map New forecast layout! Learn more

10-Day Weather Forecast

Advertisements
Track Severe Weather on mobile